Crawford, CO (81415)

6:17 AM MST on December 06, 2016 (GMT -0700)
KCOCRAWF5 | | Change Station

Elev 6896 ft 38.73 °N, 107.57 °W | Updated 2 minutes ago

Clear
Clear
16.6 °F
Feels Like 17 °F
N
0.0
Wind Variable Wind from North
Gusts 0.0 mph

Today
High -- | Low -- °F
--% Chance of Precip.
Yesterday
High -- | Low -- °F
Precip. -- in
Pressure 29.98 in
Visibility 10.0 miles
Clouds Clear
Windchill 17 °F
Dew Point 6 °F
Humidity 63%
Rainfall 0.00 in
Snow Depth Not available.
7:14 AM 4:48 PM
Waxing Crescent, 41% visible
METAR KMTJ 061253Z AUTO 13006KT 10SM CLR M11/M13 A2993 RMK AO2 SLP152 T11061133
Pressure 29.98 in
Visibility 10.0 miles
Clouds Clear
Windchill 17 °F
Dew Point 6 °F
Humidity 63%
Rainfall 0.00 in
Snow Depth Not available.
7:14 AM 4:48 PM
Waxing Crescent, 41% visible
METAR KMTJ 061253Z AUTO 13006KT 10SM CLR M11/M13 A2993 RMK AO2 SLP152 T11061133

10-Day Weather Forecast

Almanac

Astronomy

Dec. 06, 2016 Rise Set
Actual Time
Civil Twilight
Nautical Twilight
Astronomical Twilight
Moon
Length of Visible Light
Length of Day
Tomorrow will be .
, % of the Moon is Illuminated

Today's Extremes

State Highs State Lows

Community

WunderPhotos

Upload Photos

1,955,938 photos uploaded!

WunderBlog® & News

Nearby

Air Quality

  Air Quality AQ Index Pollutant
Not available.

Snow Depth

Station Depth Elevation

Earthquake Activity

City Distance Mag. Time & Date
Minimum magnitude displayed is 2.5.

Coastal Water Temperatures

Place Temperature

Stations

Nearby Weather Stations

Station Location Temp. Windchill Dew Point Humidity Wind Precip. Elev Updated Type
                   

Watches & Warnings

There are currently no watches in effect.